Time;durP1;ratioP1;P1;durP2;ratioP2;P2;SDS_P1;SDS_P2;PMS_P1;PMS_P2;Temp;Humidity;BMP_temperature;BMP_pressure;BME280_temperature;BME280_humidity;BME280_pressure;Samples;Min_cycle;Max_cycle;Signal;HPM_P1;HPM_P2
2022/12/18 00:01:33;;;;;;;44.08;19.42;;;;;;;-3.28;97.38;101339.91;4937605;29;20049;-67
2022/12/18 00:03:59;;;;;;;50.35;19.00;;;;;;;-3.25;97.98;101339.16;4934437;29;20039;-67
2022/12/18 00:06:26;;;;;;;52.95;19.90;;;;;;;-3.24;97.45;101339.22;4933111;29;20040;-67
2022/12/18 00:08:53;;;;;;;52.95;21.65;;;;;;;-3.39;97.04;101322.94;4935792;28;20039;-67
2022/12/18 00:11:21;;;;;;;51.13;22.20;;;;;;;-3.45;97.44;101327.91;4935314;29;20031;-67
2022/12/18 00:13:48;;;;;;;46.05;17.85;;;;;;;-3.44;97.67;101319.25;4937341;29;20054;-67
2022/12/18 00:16:18;;;;;;;49.70;18.70;;;;;;;-3.33;97.83;101332.75;4934956;29;20067;-67
2022/12/18 00:18:43;;;;;;;48.85;19.52;;;;;;;-3.25;97.48;101342.66;4937336;29;20114;-67
2022/12/18 00:21:11;;;;;;;47.88;20.13;;;;;;;-3.29;98.19;101324.22;4935917;29;20035;-67
2022/12/18 00:23:37;;;;;;;37.53;17.85;;;;;;;-3.22;97.18;101339.28;4936154;29;20078;-67
2022/12/18 00:26:06;;;;;;;45.42;19.58;;;;;;;-3.30;98.15;101341.56;4938170;29;20035;-67
2022/12/18 00:28:32;;;;;;;39.08;19.92;;;;;;;-3.32;97.99;101345.81;4936007;29;20102;-67
2022/12/18 00:31:07;;;;;;;41.83;18.40;;;;;;;-3.37;98.08;101344.72;4937438;29;20462;-67
2022/12/18 00:33:32;;;;;;;46.85;19.70;;;;;;;-3.38;97.55;101340.34;4935453;29;20036;-67
2022/12/18 00:36:06;;;;;;;47.15;17.52;;;;;;;-3.46;98.49;101333.03;4935084;29;20038;-67
2022/12/18 00:38:32;;;;;;;46.08;19.40;;;;;;;-3.46;98.08;101338.22;4952262;28;20054;-66
2022/12/18 00:40:58;;;;;;;48.33;20.27;;;;;;;-3.53;97.99;101344.88;4952425;29;20373;-67
2022/12/18 00:43:24;;;;;;;54.58;21.25;;;;;;;-3.50;98.84;101346.69;4939705;28;20032;-66
2022/12/18 00:45:49;;;;;;;44.03;20.58;;;;;;;-3.46;98.88;101333.03;4937319;29;20170;-66
2022/12/18 00:48:15;;;;;;;45.05;17.63;;;;;;;-3.53;98.07;101331.88;4933871;29;20038;-66
2022/12/18 00:50:40;;;;;;;54.67;20.73;;;;;;;-3.45;98.12;101327.00;4937214;29;20036;-67
2022/12/18 00:53:06;;;;;;;42.25;19.83;;;;;;;-3.54;98.79;101309.28;4934978;29;20110;-67
2022/12/18 00:55:31;;;;;;;45.70;19.25;;;;;;;-3.55;99.04;101322.22;4916654;29;20365;-67
2022/12/18 00:57:57;;;;;;;49.83;20.20;;;;;;;-3.55;99.15;101312.72;4940366;29;20035;-66
2022/12/18 01:00:22;;;;;;;42.95;19.83;;;;;;;-3.55;99.39;101320.50;4953395;28;20023;-66
2022/12/18 01:02:48;;;;;;;48.25;18.20;;;;;;;-3.57;98.24;101327.34;4953553;28;20023;-66
2022/12/18 01:05:14;;;;;;;51.15;18.58;;;;;;;-3.53;98.38;101339.66;4932981;29;20028;-67
2022/12/18 01:07:40;;;;;;;49.67;19.75;;;;;;;-3.61;98.54;101325.44;4938422;29;20415;-66
2022/12/18 01:10:08;;;;;;;45.83;18.60;;;;;;;-3.51;98.81;101342.34;4933178;29;20027;-66
2022/12/18 01:12:33;;;;;;;43.78;17.92;;;;;;;-3.61;98.18;101325.44;4935807;29;20106;-67
2022/12/18 01:14:59;;;;;;;51.05;19.17;;;;;;;-3.46;98.79;101346.91;4933632;29;20023;-67
2022/12/18 01:17:24;;;;;;;43.78;19.33;;;;;;;-3.62;98.12;101339.25;4933186;29;20104;-66
2022/12/18 01:19:50;;;;;;;56.13;18.45;;;;;;;-3.61;98.43;101328.06;4932655;29;20059;-66
2022/12/18 01:22:15;;;;;;;48.20;19.92;;;;;;;-3.53;99.74;101326.69;4936530;29;20019;-67
2022/12/18 01:24:41;;;;;;;40.88;18.08;;;;;;;-3.52;99.38;101336.25;4932075;29;20059;-66
2022/12/18 01:27:06;;;;;;;58.88;22.95;;;;;;;-3.52;99.29;101346.63;4930271;29;20028;-67
2022/12/18 01:29:31;;;;;;;45.50;21.98;;;;;;;-3.48;98.36;101356.38;4935526;29;20028;-67
2022/12/18 01:31:57;;;;;;;50.88;21.15;;;;;;;-3.43;99.26;101366.97;4933999;29;20019;-67
2022/12/18 01:34:23;;;;;;;48.63;19.88;;;;;;;-3.43;98.62;101367.88;4933879;29;20089;-66
2022/12/18 01:36:51;;;;;;;35.58;17.73;;;;;;;-3.43;98.08;101367.88;4935574;28;20051;-66
2022/12/18 01:39:18;;;;;;;50.50;19.13;;;;;;;-3.51;97.70;101357.94;4933518;29;20059;-66
2022/12/18 01:42:01;;;;;;;49.05;19.42;;;;;;;-3.55;98.40;101350.81;4935380;29;20035;-67
2022/12/18 01:44:55;;;;;;;50.22;20.13;;;;;;;-3.58;98.13;101355.88;4934778;29;20039;-67
2022/12/18 01:47:41;;;;;;;61.33;23.00;;;;;;;-3.54;99.07;101343.06;4933977;29;20031;-67
2022/12/18 01:50:34;;;;;;;43.35;19.20;;;;;;;-3.49;97.97;101349.38;4914609;29;20493;-67
2022/12/18 01:53:07;;;;;;;43.88;21.48;;;;;;;-3.57;99.06;101345.53;4929936;29;20122;-67
2022/12/18 01:55:40;;;;;;;46.30;19.42;;;;;;;-3.59;98.99;101344.56;4933471;29;20031;-66
2022/12/18 01:58:05;;;;;;;46.75;19.85;;;;;;;-3.39;98.58;101371.47;4935753;29;20042;-66
2022/12/18 02:00:37;;;;;;;39.30;19.85;;;;;;;-3.57;98.95;101337.75;4933316;29;20443;-72
2022/12/18 02:03:03;;;;;;;46.28;20.13;;;;;;;-3.49;97.77;101346.78;4933444;29;20437;-71
2022/12/18 02:05:55;;;;;;;56.65;21.25;;;;;;;-3.42;98.69;101359.22;4935919;29;20064;-71
2022/12/18 02:08:33;;;;;;;43.17;17.88;;;;;;;-3.46;98.50;101349.50;4934004;29;20040;-71
2022/12/18 02:11:12;;;;;;;47.78;19.00;;;;;;;-3.38;97.51;101361.16;4935454;29;20036;-71
2022/12/18 02:14:00;;;;;;;49.97;21.27;;;;;;;-3.37;97.54;101362.03;4931431;29;20080;-71
2022/12/18 02:16:58;;;;;;;47.63;20.45;;;;;;;-3.42;97.13;101368.72;4928866;29;20071;-71
2022/12/18 02:20:05;;;;;;;41.28;18.58;;;;;;;-3.47;97.11;101355.53;4901623;29;20050;-72
2022/12/18 02:22:39;;;;;;;39.60;17.00;;;;;;;-3.43;97.05;101367.88;4894755;29;20043;-71
2022/12/18 02:25:38;;;;;;;42.75;18.85;;;;;;;-3.40;98.57;101368.00;4942014;29;20036;-71
2022/12/18 02:28:08;;;;;;;34.90;16.52;;;;;;;-3.42;98.61;101369.63;4913928;29;20107;-70
2022/12/18 02:30:37;;;;;;;46.45;18.08;;;;;;;-3.58;97.96;101351.56;4918883;29;20059;-71
2022/12/18 02:33:06;;;;;;;35.85;17.75;;;;;;;-3.42;97.32;101364.44;4914376;29;20412;-71
2022/12/18 02:35:34;;;;;;;42.00;19.80;;;;;;;-3.36;98.05;101363.81;4914455;29;20526;-71
2022/12/18 02:38:01;;;;;;;37.65;16.83;;;;;;;-3.48;97.08;101364.16;4931180;29;20039;-71
2022/12/18 02:40:28;;;;;;;44.63;18.08;;;;;;;-3.48;97.81;101358.97;4930955;29;20036;-71
2022/12/18 02:42:54;;;;;;;47.33;20.65;;;;;;;-3.59;97.02;101344.56;4914517;29;20024;-71
2022/12/18 02:45:19;;;;;;;46.90;19.88;;;;;;;-3.46;97.36;101362.50;4915914;29;20026;-70
2022/12/18 02:47:49;;;;;;;40.38;18.35;;;;;;;-3.41;97.74;101363.59;4935466;29;20034;-71
2022/12/18 02:50:44;;;;;;;45.83;18.92;;;;;;;-3.39;97.31;101364.56;4933441;29;20035;-71
2022/12/18 02:53:09;;;;;;;36.75;17.15;;;;;;;-3.46;97.35;101356.44;4932860;29;20028;-71
2022/12/18 02:55:50;;;;;;;40.63;18.60;;;;;;;-3.40;97.41;101359.28;4934428;29;20095;-71
2022/12/18 02:58:44;;;;;;;42.17;18.15;;;;;;;-3.49;96.11;101366.69;4947897;29;20027;-71
2022/12/18 03:01:21;;;;;;;41.45;18.58;;;;;;;-3.48;97.38;101382.38;4933352;29;20024;-70
2022/12/18 03:03:49;;;;;;;38.75;18.88;;;;;;;-3.63;96.89;101341.78;4920184;29;20145;-71
2022/12/18 03:06:30;;;;;;;40.38;19.00;;;;;;;-3.55;96.78;101351.72;4933977;29;20040;-71
2022/12/18 03:09:04;;;;;;;40.30;18.42;;;;;;;-3.44;96.94;101380.81;4932477;29;20031;-71
2022/12/18 03:14:21;;;;;;;36.85;17.17;;;;;;;-3.60;95.04;101379.22;4913659;29;20078;-71
2022/12/18 03:16:51;;;;;;;42.60;20.60;;;;;;;-3.69;96.64;101373.56;4913154;29;20068;-70
2022/12/18 03:19:19;;;;;;;40.45;17.00;;;;;;;-3.72;96.84;101378.63;4932592;29;20110;-71
2022/12/18 03:21:49;;;;;;;43.03;19.65;;;;;;;-3.68;95.66;101377.97;4931473;29;20035;-71
2022/12/18 03:24:16;;;;;;;41.95;19.38;;;;;;;-3.76;95.74;101374.16;4937693;29;20142;-72
2022/12/18 03:26:46;;;;;;;39.88;17.85;;;;;;;-3.72;96.26;101381.25;4936903;29;20399;-71
2022/12/18 03:29:29;;;;;;;41.88;17.77;;;;;;;-3.82;96.45;101359.97;4936493;29;20504;-71
2022/12/18 03:32:10;;;;;;;42.67;16.23;;;;;;;-3.61;95.75;101382.66;4953548;29;20399;-71
2022/12/18 03:34:39;;;;;;;45.00;18.83;;;;;;;-3.60;97.12;101379.22;4955860;28;20077;-71
2022/12/18 03:37:05;;;;;;;41.47;19.25;;;;;;;-3.54;96.71;101378.59;4940765;29;20028;-71
2022/12/18 03:39:31;;;;;;;44.30;16.90;;;;;;;-3.53;97.61;101389.06;4936236;29;20131;-71
2022/12/18 03:42:06;;;;;;;45.30;20.45;;;;;;;-3.65;96.69;101346.00;4938455;29;20106;-71
2022/12/18 03:44:47;;;;;;;40.05;18.48;;;;;;;-3.47;97.09;101376.34;4936768;29;20027;-70
2022/12/18 03:47:31;;;;;;;47.35;19.98;;;;;;;-3.46;96.37;101391.09;4935889;29;20036;-70
2022/12/18 03:50:06;;;;;;;46.83;18.83;;;;;;;-3.61;96.48;101386.94;4951222;29;20039;-71
2022/12/18 03:52:42;;;;;;;47.08;19.95;;;;;;;-3.58;96.69;101384.47;4928958;29;20042;-71
2022/12/18 03:55:09;;;;;;;44.95;18.15;;;;;;;-3.62;96.54;101379.94;4937792;29;20035;-71
2022/12/18 03:57:35;;;;;;;39.45;17.65;;;;;;;-3.73;96.65;101375.97;4935205;29;20476;-71
2022/12/18 04:00:08;;;;;;;47.42;20.00;;;;;;;-3.60;96.54;101383.50;4937374;29;20031;-71
2022/12/18 04:02:36;;;;;;;46.17;19.17;;;;;;;-3.83;96.53;101360.78;4935503;29;20380;-71
2022/12/18 04:05:06;;;;;;;39.78;17.80;;;;;;;-3.73;96.61;101374.28;4935182;29;20042;-71
2022/12/18 04:07:33;;;;;;;47.10;18.00;;;;;;;-3.68;96.46;101364.97;4937869;29;20035;-71
2022/12/18 04:10:01;;;;;;;39.10;18.70;;;;;;;-3.70;95.65;101370.91;4934518;29;20056;-71
2022/12/18 04:12:28;;;;;;;43.38;19.65;;;;;;;-3.72;95.66;101367.38;4935894;29;20035;-71
2022/12/18 04:14:54;;;;;;;40.63;17.75;;;;;;;-3.82;96.33;101366.03;4938398;29;20049;-71
2022/12/18 04:17:19;;;;;;;43.88;18.63;;;;;;;-3.83;95.66;101356.47;4935672;29;20131;-71
2022/12/18 04:19:45;;;;;;;43.25;17.05;;;;;;;-3.88;96.07;101345.00;4935903;29;20043;-70
2022/12/18 04:22:10;;;;;;;37.75;19.83;;;;;;;-3.88;96.50;101354.47;4935811;29;20075;-70
2022/12/18 04:24:36;;;;;;;41.10;18.88;;;;;;;-3.89;96.79;101343.22;4937360;29;20027;-71
2022/12/18 04:27:01;;;;;;;49.08;17.55;;;;;;;-3.84;96.94;101340.81;4935333;29;20380;-71
2022/12/18 04:29:28;;;;;;;48.95;20.02;;;;;;;-3.71;96.68;101358.75;4935556;29;20051;-71
2022/12/18 04:31:54;;;;;;;38.58;17.98;;;;;;;-3.70;96.69;101353.63;4935462;29;20127;-70
2022/12/18 04:34:19;;;;;;;34.25;17.73;;;;;;;-3.74;96.74;101349.09;4937225;28;20039;-70
2022/12/18 04:36:45;;;;;;;40.50;18.58;;;;;;;-3.68;97.66;101362.38;4950155;29;20035;-70
2022/12/18 04:39:10;;;;;;;43.38;17.80;;;;;;;-3.69;97.70;101367.50;4935311;29;20039;-70
2022/12/18 04:41:36;;;;;;;48.95;19.40;;;;;;;-3.64;97.13;101364.28;4935706;29;20023;-71
2022/12/18 04:44:01;;;;;;;53.17;19.50;;;;;;;-3.63;97.85;101365.19;4937257;29;20388;-70
2022/12/18 04:46:27;;;;;;;47.83;18.20;;;;;;;-3.53;98.23;101365.69;4935333;29;20475;-70
2022/12/18 04:48:52;;;;;;;46.20;18.45;;;;;;;-3.57;98.10;101358.53;4937370;29;20098;-71
2022/12/18 04:51:17;;;;;;;39.85;17.80;;;;;;;-3.60;98.29;101373.09;4934394;29;20027;-70
2022/12/18 04:53:43;;;;;;;45.47;18.02;;;;;;;-3.61;98.15;101369.66;4936487;29;20391;-70
2022/12/18 04:56:11;;;;;;;42.90;19.05;;;;;;;-3.61;97.62;101369.66;4934393;29;20020;-70
2022/12/18 04:58:38;;;;;;;48.28;18.50;;;;;;;-3.59;97.74;101374.91;4934438;29;20468;-71
2022/12/18 05:01:05;;;;;;;45.83;19.75;;;;;;;-3.58;97.72;101387.06;4932134;29;20020;-71
2022/12/18 05:03:30;;;;;;;33.85;16.08;;;;;;;-3.61;98.28;101390.44;4921223;29;20024;-71
2022/12/18 05:05:56;;;;;;;42.75;17.20;;;;;;;-3.63;97.28;101379.06;4934188;29;20055;-71
2022/12/18 05:08:22;;;;;;;40.08;17.23;;;;;;;-3.54;98.67;101374.28;4934316;29;20031;-71
2022/12/18 05:10:47;;;;;;;48.83;19.30;;;;;;;-3.65;98.04;101359.91;4950621;29;20141;-71
2022/12/18 05:13:13;;;;;;;38.08;18.58;;;;;;;-3.57;97.52;101368.94;4953996;28;20046;-70
2022/12/18 05:15:38;;;;;;;48.03;17.75;;;;;;;-3.51;97.99;101376.13;4954108;28;20505;-71
2022/12/18 05:18:04;;;;;;;38.65;17.05;;;;;;;-3.48;96.94;101366.78;4951796;29;20558;-71
2022/12/18 05:20:29;;;;;;;41.75;18.65;;;;;;;-3.53;97.96;101376.06;4935214;29;20039;-71
2022/12/18 05:22:55;;;;;;;50.20;19.05;;;;;;;-3.53;97.71;101360.47;4934433;29;20034;-71
2022/12/18 05:25:21;;;;;;;32.30;18.70;;;;;;;-3.48;98.24;101368.47;4936205;29;20032;-71
2022/12/18 05:27:47;;;;;;;51.58;18.20;;;;;;;-3.65;98.15;101348.63;4934422;29;20039;-71
2022/12/18 05:30:13;;;;;;;46.28;18.98;;;;;;;-3.59;98.16;101374.91;4934106;29;20032;-71
2022/12/18 05:32:39;;;;;;;39.08;18.17;;;;;;;-3.60;97.51;101376.59;4933842;29;20364;-71
2022/12/18 05:35:07;;;;;;;37.30;16.90;;;;;;;-3.58;97.60;101374.97;4935468;29;20711;-71
2022/12/18 05:37:32;;;;;;;34.63;15.90;;;;;;;-3.63;97.96;101379.06;4931630;29;20031;-72
2022/12/18 05:39:58;;;;;;;52.72;19.25;;;;;;;-3.59;98.20;101380.97;4933729;29;20028;-71
2022/12/18 05:42:23;;;;;;;46.58;18.23;;;;;;;-3.61;97.99;101382.66;4935368;29;20034;-71
2022/12/18 05:44:49;;;;;;;46.60;18.70;;;;;;;-3.69;97.10;101357.97;4934098;29;20042;-71
2022/12/18 05:47:14;;;;;;;47.95;18.25;;;;;;;-3.60;97.65;101375.72;4933695;29;20063;-72
2022/12/18 05:49:40;;;;;;;41.08;16.85;;;;;;;-3.69;97.45;101363.19;4936328;29;20031;-71
2022/12/18 05:52:05;;;;;;;44.28;18.02;;;;;;;-3.63;97.29;101373.88;4933679;29;20039;-70
2022/12/18 05:54:30;;;;;;;35.72;17.77;;;;;;;-3.60;96.71;101381.81;4936215;29;20067;-71
2022/12/18 05:56:56;;;;;;;38.00;17.65;;;;;;;-3.61;97.00;101371.34;4934148;29;20122;-71
2022/12/18 05:59:22;;;;;;;35.22;15.70;;;;;;;-3.51;97.16;101387.41;4932779;29;20031;-71
2022/12/18 06:01:47;;;;;;;48.90;18.42;;;;;;;-3.63;97.60;101357.38;4935380;29;20034;-71
2022/12/18 06:04:13;;;;;;;43.03;18.88;;;;;;;-3.52;97.49;101397.75;4932962;29;20053;-71
2022/12/18 06:06:38;;;;;;;46.72;20.13;;;;;;;-3.52;96.94;101413.34;4933138;29;20082;-71
2022/12/18 06:09:08;;;;;;;39.42;18.25;;;;;;;-3.54;97.02;101415.88;4933581;29;20034;-70
2022/12/18 06:11:35;;;;;;;42.47;17.23;;;;;;;-3.53;97.22;101417.69;4931600;29;20027;-71
2022/12/18 06:14:01;;;;;;;46.00;18.00;;;;;;;-3.53;96.99;101421.97;4932909;29;20031;-71
2022/12/18 06:16:27;;;;;;;41.75;18.05;;;;;;;-3.56;96.59;101414.94;4943559;29;20110;-72
2022/12/18 06:18:56;;;;;;;45.80;17.63;;;;;;;-3.69;96.26;101404.78;4933799;29;20027;-71
2022/12/18 06:21:22;;;;;;;35.83;16.63;;;;;;;-3.56;96.43;101430.53;4935337;29;20034;-71
2022/12/18 06:23:47;;;;;;;41.47;17.67;;;;;;;-3.51;96.94;101431.63;4933616;29;20555;-71
2022/12/18 06:26:13;;;;;;;40.17;17.55;;;;;;;-3.49;97.45;101427.38;4933843;29;20035;-72
2022/12/18 06:28:39;;;;;;;37.22;16.33;;;;;;;-3.48;97.79;101423.97;4933600;29;20034;-72
2022/12/18 06:31:06;;;;;;;47.50;18.90;;;;;;;-3.46;97.70;101440.50;4935189;29;20535;-71
2022/12/18 06:33:32;;;;;;;48.35;17.83;;;;;;;-3.54;96.73;101428.88;4933084;29;20028;-71
2022/12/18 06:36:03;;;;;;;45.20;19.23;;;;;;;-3.44;96.20;101446.69;4933499;29;20035;-72
2022/12/18 06:38:28;;;;;;;42.67;20.02;;;;;;;-3.47;97.44;101438.75;4933334;29;20484;-72
2022/12/18 06:40:53;;;;;;;36.60;18.58;;;;;;;-3.56;96.74;101421.84;4935203;29;20031;-72
2022/12/18 06:43:19;;;;;;;42.40;16.45;;;;;;;-3.47;96.80;101425.75;4933336;29;20024;-72
2022/12/18 06:45:46;;;;;;;39.97;18.10;;;;;;;-3.42;95.37;101436.34;4935411;29;20047;-72
2022/12/18 06:48:11;;;;;;;42.70;17.42;;;;;;;-3.41;95.56;101439.00;4924040;29;20503;-72
2022/12/18 06:50:36;;;;;;;40.17;17.63;;;;;;;-3.42;95.30;101452.84;4932956;29;20023;-72
2022/12/18 06:53:02;;;;;;;40.10;15.15;;;;;;;-3.52;96.39;101442.84;4936163;29;20416;-72
2022/12/18 06:55:27;;;;;;;41.28;16.00;;;;;;;-3.47;96.14;101438.75;4931799;29;20039;-73
2022/12/18 06:57:53;;;;;;;43.75;18.40;;;;;;;-3.60;95.88;101400.00;4933169;29;20031;-72
2022/12/18 07:00:18;;;;;;;43.50;20.45;;;;;;;-3.37;97.03;101435.75;4928328;29;20523;-73
2022/12/18 07:02:44;;;;;;;44.45;16.88;;;;;;;-3.42;95.99;101433.75;4933281;29;20032;-73
2022/12/18 07:05:09;;;;;;;43.90;16.73;;;;;;;-3.43;96.17;101443.28;4912825;29;20035;-72
2022/12/18 07:07:35;;;;;;;45.67;16.65;;;;;;;-3.68;96.03;101424.75;4949010;29;20547;-73
2022/12/18 07:10:00;;;;;;;49.38;18.08;;;;;;;-3.60;96.58;101436.41;4952236;28;20110;-73
2022/12/18 07:12:29;;;;;;;46.90;16.55;;;;;;;-3.56;97.45;101440.94;4933129;28;20435;-72
2022/12/18 07:14:54;;;;;;;44.90;16.80;;;;;;;-3.50;98.01;101437.72;4934967;29;20047;-73
2022/12/18 07:17:19;;;;;;;42.58;15.93;;;;;;;-3.52;98.09;101440.25;4932831;29;20131;-72
2022/12/18 07:19:45;;;;;;;47.00;17.73;;;;;;;-3.51;98.30;101435.94;4932992;29;20118;-73
2022/12/18 07:22:10;;;;;;;40.30;17.17;;;;;;;-3.63;97.79;101420.69;4932897;29;20396;-73
2022/12/18 07:24:36;;;;;;;42.47;15.70;;;;;;;-3.69;97.86;101435.97;4921651;29;20027;-73
2022/12/18 07:27:01;;;;;;;47.95;17.20;;;;;;;-3.57;97.54;101446.94;4947893;28;20032;-72
2022/12/18 07:29:27;;;;;;;49.08;19.45;;;;;;;-3.56;97.03;101448.75;4933615;29;20027;-73
2022/12/18 07:31:52;;;;;;;41.85;14.98;;;;;;;-3.57;98.77;101451.25;4931856;28;20024;-72
2022/12/18 07:34:17;;;;;;;37.88;17.65;;;;;;;-3.70;97.33;101420.31;4929513;29;20039;-72
2022/12/18 07:36:43;;;;;;;42.67;16.55;;;;;;;-3.52;97.22;101444.53;4941787;29;20058;-73
2022/12/18 07:39:10;;;;;;;43.85;17.25;;;;;;;-3.61;98.45;101438.94;4951102;28;20118;-72
2022/12/18 07:41:36;;;;;;;41.10;16.05;;;;;;;-3.50;99.03;101454.22;4949827;29;20483;-73
2022/12/18 07:44:01;;;;;;;40.92;15.60;;;;;;;-3.35;97.99;101470.53;4951025;28;20025;-72
2022/12/18 07:46:27;;;;;;;40.65;15.40;;;;;;;-3.30;97.49;101474.22;4936696;28;20142;-72
2022/12/18 07:48:52;;;;;;;38.47;14.25;;;;;;;-3.40;98.05;101451.22;4932654;29;20031;-73
2022/12/18 07:51:18;;;;;;;47.42;15.65;;;;;;;-3.29;97.99;101465.59;4934730;29;20042;-73
2022/12/18 07:53:44;;;;;;;42.28;16.35;;;;;;;-3.26;98.00;101457.91;4931028;29;20023;-72
2022/12/18 07:56:11;;;;;;;40.53;17.70;;;;;;;-3.24;98.62;101474.50;4930667;29;20446;-72
2022/12/18 07:58:37;;;;;;;37.17;14.98;;;;;;;-3.32;98.29;101478.47;4933442;29;20035;-73
2022/12/18 08:01:08;;;;;;;41.78;15.68;;;;;;;-3.30;97.06;101474.22;4947191;29;20028;-72
2022/12/18 08:03:33;;;;;;;48.65;16.90;;;;;;;-3.31;97.88;101474.16;4934342;29;20047;-73
2022/12/18 08:06:04;;;;;;;40.53;15.32;;;;;;;-3.29;97.78;101470.78;4931026;29;20023;-73
2022/12/18 08:08:30;;;;;;;51.78;16.67;;;;;;;-3.17;98.47;101481.75;4933109;29;20027;-72
2022/12/18 08:10:56;;;;;;;46.58;16.23;;;;;;;-3.19;98.00;101483.41;4937360;28;20129;-72
2022/12/18 08:13:22;;;;;;;37.45;15.00;;;;;;;-3.13;97.86;101481.06;4935994;29;20031;-73
2022/12/18 08:15:58;;;;;;;44.17;14.80;;;;;;;-3.16;98.32;101473.13;4937477;29;20036;-72
2022/12/18 08:18:23;;;;;;;34.30;15.60;;;;;;;-3.11;98.66;101476.81;4935685;29;20028;-72
2022/12/18 08:20:49;;;;;;;41.50;16.08;;;;;;;-3.29;97.69;101457.78;4935820;29;20434;-73
2022/12/18 08:23:14;;;;;;;41.45;16.52;;;;;;;-3.15;97.77;101476.63;4935446;29;20031;-73
2022/12/18 08:25:40;;;;;;;48.85;16.45;;;;;;;-3.25;98.34;101451.91;4937768;29;20403;-73
2022/12/18 08:28:05;;;;;;;45.30;17.50;;;;;;;-3.21;97.78;101468.56;4934345;29;20031;-73
2022/12/18 08:30:30;;;;;;;;;;;;;;;-2.99;98.97;101461.78;4937972;29;20811;-72
2022/12/18 08:32:56;;;;;;;;;;;;;;;-3.13;98.15;101464.59;4966851;28;19930;-72
2022/12/18 08:35:21;;;;;;;;;;;;;;;-3.21;97.44;101464.22;4935958;29;20374;-72
2022/12/18 08:37:46;;;;;;;;;;;;;;;-3.10;97.97;101460.38;4935942;29;19915;-72
2022/12/18 08:40:12;;;;;;;;;;;;;;;-2.97;98.46;101443.63;4938176;29;20331;-72
2022/12/18 08:45:22;;;;;;;;;;;;;;;-2.76;98.41;101445.44;4935758;29;20370;-72
2022/12/18 08:47:47;;;;;;;;;;;;;;;-2.75;97.30;101442.00;4935617;29;19914;-72
2022/12/18 08:50:12;;;;;;;;;;;;;;;-2.83;97.00;101448.59;4937977;29;19919;-72
2022/12/18 08:52:37;;;;;;;;;;;;;;;-2.84;96.97;101448.53;4935440;29;19926;-72
2022/12/18 08:55:03;;;;;;;;;;;;;;;-2.75;96.39;101446.31;4937678;29;19973;-72
2022/12/18 08:57:28;;;;;;;;;;;;;;;-2.68;96.64;101442.28;4935455;29;19914;-72
2022/12/18 08:59:54;;;;;;;;;;;;;;;-2.76;96.42;101435.03;4937848;29;19920;-73
2022/12/18 09:02:19;;;;;;;;;;;;;;;-2.71;95.68;101427.41;4935728;29;19911;-72
2022/12/18 09:04:47;;;;;;;;;;;;;;;-2.64;96.40;101431.16;4935162;29;19915;-72
2022/12/18 09:07:12;;;;;;;;;;;;;;;-2.65;96.00;101432.84;4937301;29;19946;-72
2022/12/18 09:09:37;;;;;;;;;;;;;;;-2.57;96.47;101447.13;4965627;28;20291;-71
2022/12/18 09:12:03;;;;;;;;;;;;;;;-2.64;94.66;101445.06;4934603;29;19926;-72
2022/12/18 09:14:28;;;;;;;;;;;;;;;-2.54;95.44;101456.75;4934355;29;20748;-71
2022/12/18 09:16:53;;;;;;;;;;;;;;;-2.55;94.59;101458.47;4967457;28;19922;-72
2022/12/18 09:19:19;;;;;;;;;;;;;;;-2.44;95.37;101464.13;4934926;29;20407;-71
2022/12/18 09:21:44;;;;;;;;;;;;;;;-2.53;95.00;101464.63;4935909;29;19919;-73
2022/12/18 09:24:12;;;;;;;;;;;;;;;-2.46;94.11;101464.09;4934972;29;19950;-72
2022/12/18 09:26:37;;;;;;;;;;;;;;;-2.54;94.15;101465.47;4935487;29;19914;-72
2022/12/18 09:29:02;;;;;;;;;;;;;;;-2.47;94.26;101464.88;4933797;29;19985;-72
2022/12/18 09:31:28;;;;;;;;;;;;;;;-2.63;93.81;101477.19;4932928;29;19922;-71
2022/12/18 09:33:54;;;;;;;;;;;;;;;-2.61;94.11;101472.94;4934817;29;20255;-72
2022/12/18 09:36:19;;;;;;;;;;;;;;;-2.43;94.49;101473.72;4933146;29;19914;-72
2022/12/18 09:38:45;;;;;;;;;;;;;;;-2.36;93.55;101480.97;4963822;28;20142;-72
2022/12/18 09:41:22;;;;;;;;;;;;;;;-2.39;94.19;101488.69;4933201;29;20339;-71
2022/12/18 09:43:56;;;;;;;;;;;;;;;-2.26;93.87;101488.34;4929250;29;20006;-72
2022/12/18 09:46:26;;;;;;;;;;;;;;;-2.26;93.44;101493.56;4915463;29;19914;-72
2022/12/18 09:48:54;;;;;;;;;;;;;;;-2.27;93.34;101495.28;4930771;29;20359;-72
2022/12/18 09:51:22;;;;;;;;;;;;;;;-2.15;93.10;101494.91;4933898;29;19945;-72
2022/12/18 09:53:51;;;;;;;;;;;;;;;-2.28;93.06;101503.03;4934328;29;20488;-72
2022/12/18 09:56:18;;;;;;;;;;;;;;;-2.25;91.99;101503.16;4952955;29;19922;-72
2022/12/18 09:58:53;;;;;;;;;;;;;;;-2.15;92.65;101500.09;4952971;29;19965;-73
2022/12/18 10:01:20;;;;;;;;;;;;;;;-2.06;92.56;101495.28;4936141;29;19914;-72
2022/12/18 10:03:46;;;;;;;;;;;;;;;-2.09;91.80;101500.38;4932830;29;19914;-72
2022/12/18 10:06:21;;;;;;;;;;;;;;;-2.27;90.96;101494.41;4936223;29;19925;-72
2022/12/18 10:08:53;;;;;;;;;;;;;;;-2.27;91.81;101482.25;4934437;29;19914;-72
2022/12/18 10:11:39;;;;;;;;;;;;;;;-2.30;92.16;101489.03;4934290;29;19946;-72
2022/12/18 10:14:20;;;;;;;;;;;;;;;-2.17;91.40;101483.50;4934419;29;19914;-73
2022/12/18 10:16:58;;;;;;;;;;;;;;;-2.20;90.62;101486.00;4933902;29;19923;-73
2022/12/18 10:19:37;;;;;;;;;;;;;;;-2.16;91.63;101478.41;4980376;28;19990;-72
2022/12/18 10:22:02;;;;;;;;;;;;;;;-2.07;91.50;101488.28;4943412;29;19911;-73
2022/12/18 10:24:38;;;;;;;;;;;;;;;-2.19;90.57;101485.19;4936042;29;20514;-71
2022/12/18 10:27:17;;;;;;;;;;;;;;;-2.13;90.66;101473.31;4933975;29;19978;-71
2022/12/18 10:29:43;;;;;;;;;;;;;;;-2.00;91.63;101474.69;4932552;29;19942;-71
2022/12/18 10:32:14;;;;;;;;;;;;;;;-1.91;90.96;101475.06;4933566;29;19919;-72
2022/12/18 10:34:39;;;;;;;;;;;;;;;-2.38;89.28;101480.91;4934813;29;19950;-71
2022/12/18 10:37:06;;;;;;;;;;;;;;;-2.28;90.62;101472.66;4934040;29;19970;-70
2022/12/18 10:39:31;;;;;;;;;;;;;;;-2.16;91.09;101464.47;4935920;29;19914;-71
2022/12/18 10:42:10;;;;;;;;;;;;;;;-2.07;90.57;101460.50;4935943;29;19918;-71
2022/12/18 10:44:35;;;;;;;;;;;;;;;-1.91;91.10;101456.81;4933981;29;19917;-71
2022/12/18 10:47:06;;;;;;;;;;;;;;;-1.75;90.89;101456.59;4934104;29;19914;-72
2022/12/18 10:49:33;;;;;;;;;;;;;;;-1.72;90.58;101462.81;4935804;29;19966;-71
2022/12/18 10:52:37;;;;;;;;;;;;;;;-1.69;89.91;101446.38;4933578;29;20012;-72
2022/12/18 10:55:03;;;;;;;;;;;;;;;-1.64;89.50;101455.28;4911348;29;19915;-72
2022/12/18 10:57:29;;;;;;;;;;;;;;;-1.61;89.03;101460.59;4893814;29;19911;-72
2022/12/18 10:59:55;;;;;;;;;;;;;;;-1.51;89.27;101467.97;4924190;29;20562;-72
2022/12/18 11:02:32;;;;;;;;;;;;;;;-1.49;88.69;101462.00;4933549;29;20413;-72
2022/12/18 11:04:58;;;;;;;;;;;;;;;-1.46;87.09;101455.97;4964536;28;19950;-71
2022/12/18 11:07:23;;;;;;;;;;;;;;;-1.60;86.37;101452.84;4934470;29;20409;-72
2022/12/18 11:10:08;;;;;;;;;;;;;;;-1.81;86.07;101452.00;4933972;29;19952;-72
2022/12/18 11:12:33;;;;;;;;;;;;;;;-1.76;86.44;101454.78;4932189;29;20010;-72
2022/12/18 11:14:59;;;;;;;;;;;;;;;-1.74;87.67;101453.13;4935312;29;20355;-72
2022/12/18 11:17:30;;;;;;;;;;;;;;;-1.81;87.03;101444.19;4933335;29;19923;-72
2022/12/18 11:19:56;;;;;;;;;;;;;;;-1.71;87.46;101448.03;4935169;29;19960;-71
2022/12/18 11:22:22;;;;;;;;;;;;;;;-1.80;88.34;101447.69;4933450;29;19924;-72
2022/12/18 11:25:06;;;;;;;;;;;;;;;-1.79;88.23;101455.56;4932305;29;19918;-72
2022/12/18 11:27:32;;;;;;;;;;;;;;;-1.66;88.09;101451.72;4963905;28;19922;-72
2022/12/18 11:30:20;;;;;;;;;;;;;;;-1.49;88.98;101445.44;4934996;29;19918;-72
2022/12/18 11:32:52;;;;;;;;;;;;;;;-1.39;88.91;101439.75;4963818;28;20306;-72
2022/12/18 11:35:20;;;;;;;;;;;;;;;-1.50;88.47;101447.16;4938240;29;19921;-72
2022/12/18 11:37:53;;;;;;;;;;;;;;;-1.22;88.41;101441.28;4950923;29;19977;-71
2022/12/18 11:40:22;;;;;;;;;;;;;;;-1.25;87.52;101432.44;4950909;29;19915;-72
2022/12/18 11:42:48;;;;;;;;;;;;;;;-1.22;87.49;101428.22;4950376;28;20467;-72
2022/12/18 11:45:13;;;;;;;;;;;;;;;-1.13;86.83;101420.72;4955081;29;19992;-72